Time;durP1;ratioP1;P1;durP2;ratioP2;P2;SDS_P1;SDS_P2;PMS_P1;PMS_P2;Temp;Humidity;BMP_temperature;BMP_pressure;BME280_temperature;BME280_humidity;BME280_pressure;Samples;Min_cycle;Max_cycle;Signal;HPM_P1;HPM_P2
2023/08/16 00:04:00;;;;;;;14.23;10.27;;;;;;;;;;9970101;29;20081;-84
2023/08/16 00:09:01;;;;;;;14.23;10.20;;;;;;;;;;9969596;29;20043;-85
2023/08/16 00:14:03;;;;;;;13.32;10.75;;;;;;;;;;9956008;24;20062;-87
2023/08/16 00:19:04;;;;;;;13.93;10.63;;;;;;;;;;9945153;29;20053;-86
2023/08/16 00:24:06;;;;;;;16.42;11.25;;;;;;;;;;9932502;29;20770;-85
2023/08/16 00:29:07;;;;;;;14.00;10.77;;;;;;;;;;9933285;29;20070;-84
2023/08/16 00:34:08;;;;;;;13.93;11.48;;;;;;;;;;9933628;29;20127;-87
2023/08/16 00:39:09;;;;;;;17.90;12.98;;;;;;;;;;9940586;29;20129;-86
2023/08/16 00:44:10;;;;;;;16.55;13.05;;;;;;;;;;9940289;29;20047;-87
2023/08/16 00:49:11;;;;;;;16.13;11.80;;;;;;;;;;9940322;29;20086;-84
2023/08/16 00:54:12;;;;;;;21.50;13.50;;;;;;;;;;9939543;29;20492;-85
2023/08/16 00:59:13;;;;;;;15.55;12.50;;;;;;;;;;9923096;29;20054;-85
2023/08/16 01:04:15;;;;;;;15.85;13.20;;;;;;;;;;9939383;29;20051;-86
2023/08/16 01:09:18;;;;;;;15.32;13.00;;;;;;;;;;9938948;29;20051;-84
2023/08/16 01:14:37;;;;;;;15.13;11.75;;;;;;;;;;9928083;29;20098;-84
2023/08/16 01:19:39;;;;;;;13.52;11.57;;;;;;;;;;9922831;29;20039;-85
2023/08/16 01:24:46;;;;;;;18.38;13.30;;;;;;;;;;9939877;29;20390;-85
2023/08/16 01:29:48;;;;;;;16.23;13.48;;;;;;;;;;9938638;29;20115;-85
2023/08/16 01:34:49;;;;;;;14.30;12.10;;;;;;;;;;9939624;29;20117;-86
2023/08/16 01:39:51;;;;;;;13.30;11.82;;;;;;;;;;9938369;29;20043;-85
2023/08/16 01:44:52;;;;;;;16.35;12.15;;;;;;;;;;9921736;29;20143;-85
2023/08/16 01:49:53;;;;;;;16.88;12.02;;;;;;;;;;9936966;29;20047;-87
2023/08/16 01:54:54;;;;;;;16.45;12.35;;;;;;;;;;9937477;29;20088;-85
2023/08/16 01:59:55;;;;;;;14.27;11.25;;;;;;;;;;9938890;29;20046;-84
2023/08/16 02:04:56;;;;;;;15.20;13.55;;;;;;;;;;9921930;29;20046;-86
2023/08/16 02:09:57;;;;;;;13.52;11.15;;;;;;;;;;9935479;29;20039;-85
2023/08/16 02:14:58;;;;;;;13.50;11.75;;;;;;;;;;9936742;29;20059;-84
2023/08/16 02:19:59;;;;;;;19.02;13.35;;;;;;;;;;9920417;29;20043;-85
2023/08/16 02:25:00;;;;;;;17.33;12.73;;;;;;;;;;9936824;29;20054;-84
2023/08/16 02:30:01;;;;;;;16.08;12.93;;;;;;;;;;9917325;29;20050;-85
2023/08/16 02:35:03;;;;;;;17.90;13.88;;;;;;;;;;9936185;29;20078;-87
2023/08/16 02:40:05;;;;;;;18.05;14.18;;;;;;;;;;9936503;29;20053;-84
2023/08/16 02:45:06;;;;;;;18.65;13.70;;;;;;;;;;9919172;29;20110;-86
2023/08/16 02:50:07;;;;;;;18.98;14.05;;;;;;;;;;9916685;29;20055;-85
2023/08/16 02:55:08;;;;;;;19.30;14.25;;;;;;;;;;9936044;29;20765;-84
2023/08/16 03:00:10;;;;;;;20.50;14.98;;;;;;;;;;9935388;29;20039;-85
2023/08/16 03:05:11;;;;;;;19.25;14.75;;;;;;;;;;9935270;29;20110;-85
2023/08/16 03:10:12;;;;;;;21.45;16.55;;;;;;;;;;9935062;29;20057;-84
2023/08/16 03:15:13;;;;;;;18.80;14.43;;;;;;;;;;9935285;29;20148;-84
2023/08/16 03:20:14;;;;;;;21.75;16.38;;;;;;;;;;9919007;29;20988;-84
2023/08/16 03:25:16;;;;;;;18.58;14.95;;;;;;;;;;9934628;29;20086;-86
2023/08/16 03:30:17;;;;;;;22.52;17.45;;;;;;;;;;9918048;29;20116;-86
2023/08/16 03:35:18;;;;;;;22.98;15.77;;;;;;;;;;9934049;29;20461;-84
2023/08/16 03:40:19;;;;;;;22.02;15.93;;;;;;;;;;9935064;29;20055;-83
2023/08/16 03:45:25;;;;;;;17.08;15.18;;;;;;;;;;9917448;29;20046;-85
2023/08/16 03:50:26;;;;;;;22.13;17.35;;;;;;;;;;9933693;29;20516;-84
2023/08/16 03:55:27;;;;;;;21.38;16.52;;;;;;;;;;9917521;29;20733;-85
2023/08/16 04:00:28;;;;;;;19.27;16.05;;;;;;;;;;9916867;29;20074;-86
2023/08/16 04:05:29;;;;;;;22.27;16.77;;;;;;;;;;9917400;29;20046;-86
2023/08/16 04:10:30;;;;;;;21.10;15.75;;;;;;;;;;9932735;29;20055;-87
2023/08/16 04:15:32;;;;;;;22.48;16.40;;;;;;;;;;9933127;29;20065;-85
2023/08/16 04:20:33;;;;;;;18.38;15.40;;;;;;;;;;9918398;29;20050;-88
2023/08/16 04:25:34;;;;;;;21.15;16.75;;;;;;;;;;9933432;29;20047;-87
2023/08/16 04:30:46;;;;;;;21.77;16.83;;;;;;;;;;9920929;29;20076;-89
2023/08/16 04:35:47;;;;;;;19.88;16.90;;;;;;;;;;9919104;29;20116;-90
2023/08/16 04:40:52;;;;;;;20.27;14.93;;;;;;;;;;9914267;29;20042;-89
2023/08/16 04:46:13;;;;;;;18.90;15.73;;;;;;;;;;9916217;29;20043;-90
2023/08/16 04:51:36;;;;;;;19.30;15.15;;;;;;;;;;9843075;29;20055;-91
2023/08/16 04:57:24;;;;;;;17.98;14.65;;;;;;;;;;9901254;29;20487;-90
2023/08/16 05:02:25;;;;;;;19.48;15.07;;;;;;;;;;9910697;29;20058;-90
2023/08/16 05:07:41;;;;;;;17.95;15.02;;;;;;;;;;9900615;29;20749;-90
2023/08/16 05:13:00;;;;;;;17.70;14.57;;;;;;;;;;9902289;29;20053;-91
2023/08/16 05:18:22;;;;;;;19.15;15.35;;;;;;;;;;9906414;29;20050;-90
2023/08/16 05:23:52;;;;;;;21.55;15.75;;;;;;;;;;9892900;29;20138;-91
2023/08/16 05:29:04;;;;;;;20.08;15.88;;;;;;;;;;9865936;29;20505;-92
2023/08/16 05:34:16;;;;;;;21.60;16.85;;;;;;;;;;9897329;29;20739;-90
2023/08/16 05:39:20;;;;;;;20.50;16.50;;;;;;;;;;9897355;29;20142;-91
2023/08/16 05:44:21;;;;;;;23.42;16.80;;;;;;;;;;9897482;29;20054;-91
2023/08/16 05:49:31;;;;;;;25.25;17.17;;;;;;;;;;9924553;29;20054;-92
2023/08/16 05:54:32;;;;;;;20.73;15.13;;;;;;;;;;9922455;29;20050;-91
2023/08/16 05:59:33;;;;;;;19.38;15.05;;;;;;;;;;9939172;29;20039;-91
2023/08/16 06:04:45;;;;;;;21.60;15.80;;;;;;;;;;9922681;29;20192;-90
2023/08/16 06:09:46;;;;;;;27.42;19.38;;;;;;;;;;9922368;29;20063;-90
2023/08/16 06:14:47;;;;;;;26.77;17.63;;;;;;;;;;9934163;29;20145;-91
2023/08/16 06:19:48;;;;;;;22.00;17.13;;;;;;;;;;9958628;29;20110;-92
2023/08/16 06:24:53;;;;;;;20.95;14.57;;;;;;;;;;9959111;29;20046;-92
2023/08/16 06:29:54;;;;;;;17.73;13.57;;;;;;;;;;9958504;29;20499;-91
2023/08/16 06:34:55;;;;;;;20.10;14.30;;;;;;;;;;9958526;29;20046;-93
2023/08/16 06:39:56;;;;;;;21.25;13.65;;;;;;;;;;9958997;29;20147;-91
2023/08/16 06:44:57;;;;;;;19.45;14.13;;;;;;;;;;9957870;29;20107;-91
2023/08/16 06:50:01;;;;;;;18.67;14.45;;;;;;;;;;9958644;29;20387;-92
2023/08/16 06:55:02;;;;;;;19.00;12.63;;;;;;;;;;9958977;29;20822;-93
2023/08/16 07:00:04;;;;;;;20.08;14.25;;;;;;;;;;9958612;29;20066;-92
2023/08/16 07:05:05;;;;;;;22.13;15.23;;;;;;;;;;9957613;29;20049;-92
2023/08/16 07:10:07;;;;;;;19.70;15.45;;;;;;;;;;9957016;29;20104;-91
2023/08/16 07:15:08;;;;;;;21.10;16.48;;;;;;;;;;9957702;29;20054;-93
2023/08/16 07:20:10;;;;;;;19.83;14.70;;;;;;;;;;9957506;29;20117;-91
2023/08/16 07:25:12;;;;;;;16.25;12.93;;;;;;;;;;9957870;29;20095;-93
2023/08/16 07:30:13;;;;;;;16.08;13.32;;;;;;;;;;9958065;29;20042;-91
2023/08/16 07:35:14;;;;;;;14.85;12.57;;;;;;;;;;9956652;29;20817;-92
2023/08/16 07:40:15;;;;;;;17.23;12.45;;;;;;;;;;9957305;29;20542;-93
2023/08/16 07:45:18;;;;;;;12.82;10.75;;;;;;;;;;9956338;29;20099;-93
2023/08/16 07:50:19;;;;;;;11.70;9.00;;;;;;;;;;9956927;29;20532;-93
2023/08/16 07:55:23;;;;;;;10.02;8.05;;;;;;;;;;9956701;29;20151;-93
2023/08/16 08:00:24;;;;;;;8.67;6.37;;;;;;;;;;9957958;29;20050;-92
2023/08/16 08:05:26;;;;;;;7.70;6.63;;;;;;;;;;9961702;29;20141;-92
2023/08/16 08:10:29;;;;;;;8.85;6.97;;;;;;;;;;9955817;29;20696;-92
2023/08/16 08:15:30;;;;;;;9.65;6.47;;;;;;;;;;9958060;29;20054;-92
2023/08/16 08:20:31;;;;;;;6.90;5.72;;;;;;;;;;9956434;29;20130;-93
2023/08/16 08:25:32;;;;;;;9.15;5.90;;;;;;;;;;9974508;29;20473;-91
2023/08/16 08:30:33;;;;;;;9.65;6.57;;;;;;;;;;9959020;29;20046;-93
2023/08/16 08:35:38;;;;;;;8.07;5.60;;;;;;;;;;9956390;29;20559;-92
2023/08/16 08:41:09;;;;;;;9.20;5.60;;;;;;;;;;9957869;29;20049;-94
2023/08/16 08:46:10;;;;;;;7.38;5.32;;;;;;;;;;9908322;29;20042;-91
2023/08/16 08:51:43;;;;;;;9.18;5.40;;;;;;;;;;9959019;29;20085;-93
2023/08/16 08:56:52;;;;;;;7.43;5.13;;;;;;;;;;9962007;29;20437;-92
2023/08/16 09:02:03;;;;;;;7.70;4.88;;;;;;;;;;9961994;29;20729;-93
2023/08/16 09:07:09;;;;;;;6.72;5.40;;;;;;;;;;9961133;29;20079;-92
2023/08/16 09:12:15;;;;;;;7.90;5.20;;;;;;;;;;9964570;29;20129;-93
2023/08/16 09:17:19;;;;;;;8.40;5.68;;;;;;;;;;9958106;29;20065;-92
2023/08/16 09:22:52;;;;;;;7.93;5.60;;;;;;;;;;9958340;29;20400;-92
2023/08/16 09:27:54;;;;;;;6.80;5.57;;;;;;;;;;9839976;29;20511;-93
2023/08/16 09:32:58;;;;;;;11.40;5.93;;;;;;;;;;9971703;29;20038;-92
2023/08/16 09:43:21;;;;;;;8.05;5.80;;;;;;;;;;9986929;29;20483;-93
2023/08/16 09:48:26;;;;;;;7.32;5.88;;;;;;;;;;9963212;29;20672;-93
2023/08/16 09:53:27;;;;;;;6.63;5.90;;;;;;;;;;9966301;29;20042;-92
2023/08/16 09:58:29;;;;;;;7.85;6.00;;;;;;;;;;9961237;29;20046;-90
2023/08/16 10:03:30;;;;;;;7.15;5.72;;;;;;;;;;9959697;29;20046;-90
2023/08/16 10:08:39;;;;;;;6.15;5.55;;;;;;;;;;9960797;29;20070;-92
2023/08/16 10:13:40;;;;;;;7.50;6.15;;;;;;;;;;9961063;29;20086;-92
2023/08/16 10:18:42;;;;;;;7.72;5.88;;;;;;;;;;9957767;29;20030;-91
2023/08/16 10:23:45;;;;;;;7.82;5.97;;;;;;;;;;9958613;29;20413;-92
2023/08/16 10:29:08;;;;;;;6.32;5.72;;;;;;;;;;9957071;29;20105;-89
2023/08/16 10:34:10;;;;;;;7.28;6.57;;;;;;;;;;9956350;29;20418;-90
2023/08/16 10:39:20;;;;;;;11.30;6.80;;;;;;;;;;9973057;29;20450;-91
2023/08/16 10:44:23;;;;;;;6.80;5.65;;;;;;;;;;9956914;29;20053;-91
2023/08/16 10:49:24;;;;;;;6.25;5.43;;;;;;;;;;9955855;29;20728;-90
2023/08/16 10:54:35;;;;;;;10.23;6.10;;;;;;;;;;9945986;29;20465;-90
2023/08/16 10:59:39;;;;;;;8.25;5.97;;;;;;;;;;9948065;29;20563;-89
2023/08/16 11:04:42;;;;;;;6.65;5.82;;;;;;;;;;9957603;29;20077;-91
2023/08/16 11:09:43;;;;;;;8.25;6.10;;;;;;;;;;9956593;29;20065;-91
2023/08/16 11:14:47;;;;;;;7.82;5.28;;;;;;;;;;9955556;29;20112;-90
2023/08/16 11:19:48;;;;;;;8.90;6.57;;;;;;;;;;9952841;29;20526;-91
2023/08/16 11:24:50;;;;;;;8.05;6.18;;;;;;;;;;9941981;29;20058;-91
2023/08/16 11:29:52;;;;;;;6.90;6.20;;;;;;;;;;9952934;29;20061;-90
2023/08/16 11:34:53;;;;;;;8.02;6.28;;;;;;;;;;9952625;29;20134;-92
2023/08/16 11:40:00;;;;;;;8.55;6.90;;;;;;;;;;9970532;29;20575;-91
2023/08/16 11:45:03;;;;;;;9.30;6.93;;;;;;;;;;9953321;29;20070;-91
2023/08/16 11:50:08;;;;;;;9.90;7.22;;;;;;;;;;9954417;29;20053;-91
2023/08/16 11:55:14;;;;;;;6.55;5.80;;;;;;;;;;9939534;29;20054;-90
2023/08/16 12:00:25;;;;;;;8.02;6.78;;;;;;;;;;9961724;29;20091;-90
2023/08/16 12:05:34;;;;;;;9.18;6.50;;;;;;;;;;9968449;29;20054;-92
2023/08/16 12:10:35;;;;;;;9.00;6.57;;;;;;;;;;9953541;29;20098;-88
2023/08/16 12:15:36;;;;;;;10.27;7.03;;;;;;;;;;9928707;29;1234788;-88
2023/08/16 12:20:37;;;;;;;8.80;7.30;;;;;;;;;;9954517;29;20411;-88
2023/08/16 12:25:38;;;;;;;9.30;7.15;;;;;;;;;;9948754;29;20038;-87
2023/08/16 12:30:40;;;;;;;10.00;7.43;;;;;;;;;;9971809;29;20054;-88
2023/08/16 12:35:41;;;;;;;8.75;7.90;;;;;;;;;;9977723;29;20050;-87
2023/08/16 12:40:44;;;;;;;9.82;7.13;;;;;;;;;;9960217;29;20047;-84
2023/08/16 12:45:45;;;;;;;9.45;7.38;;;;;;;;;;9976292;29;20574;-86
2023/08/16 12:50:46;;;;;;;7.80;6.55;;;;;;;;;;9959421;29;20090;-86
2023/08/16 12:55:47;;;;;;;10.45;7.75;;;;;;;;;;9959802;29;20046;-86
2023/08/16 13:00:49;;;;;;;8.57;7.53;;;;;;;;;;9958589;29;20053;-88
2023/08/16 13:05:50;;;;;;;11.80;7.00;;;;;;;;;;9960537;29;20049;-85
2023/08/16 13:10:51;;;;;;;8.23;7.25;;;;;;;;;;9974677;29;20081;-85
2023/08/16 13:15:52;;;;;;;9.10;6.97;;;;;;;;;;9976604;29;20065;-86
2023/08/16 13:20:53;;;;;;;8.40;7.28;;;;;;;;;;9975633;29;20514;-86
2023/08/16 13:25:54;;;;;;;11.48;7.35;;;;;;;;;;9962951;29;20049;-87
2023/08/16 13:30:56;;;;;;;8.90;7.32;;;;;;;;;;9973265;29;20119;-87
2023/08/16 13:35:59;;;;;;;9.13;6.97;;;;;;;;;;9970142;29;20043;-85
2023/08/16 13:41:00;;;;;;;9.10;7.60;;;;;;;;;;9973768;29;20057;-88
2023/08/16 13:46:01;;;;;;;8.70;6.82;;;;;;;;;;9950808;29;20039;-87
2023/08/16 13:51:02;;;;;;;10.40;7.30;;;;;;;;;;9969769;29;20051;-86
2023/08/16 13:56:04;;;;;;;7.47;6.75;;;;;;;;;;9964423;29;20051;-88
2023/08/16 14:01:05;;;;;;;8.93;7.20;;;;;;;;;;9966144;29;20054;-87
2023/08/16 14:06:06;;;;;;;7.65;6.70;;;;;;;;;;9955595;29;20150;-88
2023/08/16 14:11:07;;;;;;;8.13;6.90;;;;;;;;;;9957311;29;20136;-89
2023/08/16 14:16:08;;;;;;;8.73;6.95;;;;;;;;;;9954034;29;20065;-88
2023/08/16 14:21:09;;;;;;;9.63;7.20;;;;;;;;;;9972625;29;20175;-86
2023/08/16 14:26:14;;;;;;;8.95;7.28;;;;;;;;;;9965031;29;20042;-86
2023/08/16 14:31:17;;;;;;;8.40;7.60;;;;;;;;;;9970433;29;20145;-88
2023/08/16 14:36:18;;;;;;;8.52;7.50;;;;;;;;;;9973257;29;20050;-90
2023/08/16 14:41:19;;;;;;;8.75;7.05;;;;;;;;;;9972467;29;20042;-89
2023/08/16 14:46:21;;;;;;;10.02;7.75;;;;;;;;;;9972257;29;20545;-89
2023/08/16 14:51:22;;;;;;;9.77;7.78;;;;;;;;;;9973308;29;20058;-89
2023/08/16 14:56:24;;;;;;;10.13;7.95;;;;;;;;;;9971497;29;20050;-89
2023/08/16 15:01:25;;;;;;;9.82;8.15;;;;;;;;;;9972844;29;20121;-87
2023/08/16 15:06:26;;;;;;;13.20;7.95;;;;;;;;;;10017438;24;20422;-88
2023/08/16 15:11:27;;;;;;;12.75;7.55;;;;;;;;;;10008115;29;20406;-86
2023/08/16 15:16:28;;;;;;;7.88;7.07;;;;;;;;;;9992995;29;20049;-87
2023/08/16 15:21:29;;;;;;;9.70;7.82;;;;;;;;;;10006136;29;20045;-87
2023/08/16 15:26:32;;;;;;;9.63;7.85;;;;;;;;;;9985380;29;20044;-89
2023/08/16 15:31:33;;;;;;;10.10;8.43;;;;;;;;;;9965663;29;20081;-87
2023/08/16 15:36:34;;;;;;;11.05;8.70;;;;;;;;;;9969719;29;20052;-86
2023/08/16 15:41:35;;;;;;;11.20;9.27;;;;;;;;;;9958055;29;20531;-86
2023/08/16 15:46:36;;;;;;;10.90;8.15;;;;;;;;;;9971228;29;20049;-88
2023/08/16 15:51:37;;;;;;;9.88;8.35;;;;;;;;;;9969457;29;20058;-86
2023/08/16 15:56:38;;;;;;;9.90;8.45;;;;;;;;;;9970774;29;20060;-88
2023/08/16 16:01:39;;;;;;;13.38;9.20;;;;;;;;;;9968980;29;20052;-86
2023/08/16 16:06:40;;;;;;;13.50;10.63;;;;;;;;;;9952725;29;20152;-88
2023/08/16 16:11:41;;;;;;;59.33;39.67;;;;;;;;;;9970671;29;20051;-87
2023/08/16 16:16:43;;;;;;;39.90;26.80;;;;;;;;;;9953112;29;20119;-87
2023/08/16 16:21:44;;;;;;;34.33;28.45;;;;;;;;;;9951689;29;20042;-87
2023/08/16 16:26:45;;;;;;;97.13;71.03;;;;;;;;;;9970403;29;20407;-87
2023/08/16 16:31:46;;;;;;;15.95;13.25;;;;;;;;;;9952950;29;20057;-86
2023/08/16 16:36:47;;;;;;;9.88;8.45;;;;;;;;;;9951752;29;20046;-86
2023/08/16 16:41:48;;;;;;;8.07;7.18;;;;;;;;;;9970814;29;20042;-87
2023/08/16 16:46:49;;;;;;;8.95;7.43;;;;;;;;;;9969591;29;20049;-86
2023/08/16 16:51:51;;;;;;;11.25;9.05;;;;;;;;;;9970070;29;20415;-85
2023/08/16 16:56:52;;;;;;;8.77;7.80;;;;;;;;;;9953353;29;20050;-86
2023/08/16 17:01:54;;;;;;;13.18;8.40;;;;;;;;;;9952521;29;20407;-86
2023/08/16 17:06:57;;;;;;;16.20;8.98;;;;;;;;;;9970379;29;20077;-86
2023/08/16 17:11:58;;;;;;;10.35;8.52;;;;;;;;;;9969199;29;20510;-86
2023/08/16 17:16:59;;;;;;;9.50;8.30;;;;;;;;;;9969133;29;20054;-87
2023/08/16 17:22:00;;;;;;;11.68;9.52;;;;;;;;;;9967960;29;20050;-86
2023/08/16 17:27:01;;;;;;;10.10;8.15;;;;;;;;;;9976174;29;20043;-86
2023/08/16 17:32:02;;;;;;;11.85;8.95;;;;;;;;;;9958335;29;20062;-87
2023/08/16 17:37:03;;;;;;;12.77;9.23;;;;;;;;;;9975195;29;20045;-85
2023/08/16 17:42:05;;;;;;;12.05;8.95;;;;;;;;;;9975364;29;20051;-86
2023/08/16 17:47:06;;;;;;;11.50;9.00;;;;;;;;;;9956557;29;20050;-84
2023/08/16 17:52:07;;;;;;;11.65;8.85;;;;;;;;;;9975677;29;20609;-86
2023/08/16 17:57:08;;;;;;;14.20;10.07;;;;;;;;;;9971457;29;20575;-87
2023/08/16 18:02:09;;;;;;;10.60;9.10;;;;;;;;;;9973250;29;20042;-85
2023/08/16 18:07:10;;;;;;;13.20;9.82;;;;;;;;;;9935373;29;20054;-85
2023/08/16 18:12:11;;;;;;;11.95;9.75;;;;;;;;;;9936845;29;20660;-86
2023/08/16 18:17:12;;;;;;;11.45;9.75;;;;;;;;;;9938839;29;20574;-86
2023/08/16 18:22:13;;;;;;;14.50;9.57;;;;;;;;;;9935685;29;20039;-87
2023/08/16 18:27:14;;;;;;;16.98;10.45;;;;;;;;;;9931249;29;20074;-89
2023/08/16 18:32:15;;;;;;;17.25;12.27;;;;;;;;;;9933705;29;20050;-87
2023/08/16 18:37:17;;;;;;;20.77;13.63;;;;;;;;;;9931062;29;20043;-88
2023/08/16 18:42:18;;;;;;;19.83;13.05;;;;;;;;;;9935136;29;20049;-87
2023/08/16 18:47:19;;;;;;;27.08;14.82;;;;;;;;;;9933674;29;20043;-87
2023/08/16 18:52:20;;;;;;;23.48;15.63;;;;;;;;;;9935033;29;20053;-87
2023/08/16 18:57:21;;;;;;;22.52;15.23;;;;;;;;;;9928443;29;20395;-87
2023/08/16 19:02:22;;;;;;;23.27;15.57;;;;;;;;;;9932107;29;20051;-87
2023/08/16 19:07:23;;;;;;;20.67;14.57;;;;;;;;;;9951195;29;20724;-87
2023/08/16 19:12:24;;;;;;;19.27;14.48;;;;;;;;;;9962193;29;20050;-85
2023/08/16 19:17:25;;;;;;;20.13;13.23;;;;;;;;;;9964169;29;20053;-86
2023/08/16 19:22:26;;;;;;;17.85;12.88;;;;;;;;;;9969753;29;20547;-85
2023/08/16 19:27:27;;;;;;;17.15;12.60;;;;;;;;;;9971866;29;20057;-85
2023/08/16 19:32:29;;;;;;;17.52;12.70;;;;;;;;;;9969996;29;20550;-86
2023/08/16 19:37:30;;;;;;;25.40;14.32;;;;;;;;;;9955574;29;20499;-86
2023/08/16 19:42:31;;;;;;;20.80;14.07;;;;;;;;;;9971139;29;20042;-85
2023/08/16 19:47:33;;;;;;;15.02;11.85;;;;;;;;;;9970610;29;20049;-86
2023/08/16 19:52:34;;;;;;;17.75;12.20;;;;;;;;;;9970369;29;20042;-86
2023/08/16 19:57:35;;;;;;;13.77;12.05;;;;;;;;;;9971769;29;20034;-86
2023/08/16 20:02:36;;;;;;;18.90;13.32;;;;;;;;;;9970517;29;20055;-85
2023/08/16 20:07:37;;;;;;;16.38;12.68;;;;;;;;;;9970121;29;20062;-86
2023/08/16 20:12:38;;;;;;;19.92;12.55;;;;;;;;;;9971290;29;20134;-86
2023/08/16 20:17:39;;;;;;;16.80;13.80;;;;;;;;;;9968953;29;20099;-86
2023/08/16 20:22:42;;;;;;;16.20;12.20;;;;;;;;;;9953818;29;20057;-87
2023/08/16 20:27:43;;;;;;;15.63;12.88;;;;;;;;;;9969741;29;20062;-86
2023/08/16 20:32:43;;;;;;;17.38;13.02;;;;;;;;;;9970666;29;20388;-86
2023/08/16 20:37:44;;;;;;;16.90;12.70;;;;;;;;;;9969178;29;20042;-86
2023/08/16 20:42:46;;;;;;;17.63;12.00;;;;;;;;;;9969285;29;20047;-86
2023/08/16 20:47:47;;;;;;;17.27;12.60;;;;;;;;;;9969694;29;20080;-86
2023/08/16 20:52:48;;;;;;;16.30;11.52;;;;;;;;;;9974461;29;20046;-86
2023/08/16 20:57:49;;;;;;;14.38;11.65;;;;;;;;;;9976503;29;20038;-85
2023/08/16 21:02:50;;;;;;;15.27;11.95;;;;;;;;;;9976403;29;20066;-85
2023/08/16 21:07:51;;;;;;;18.23;11.90;;;;;;;;;;9977272;29;20444;-85
2023/08/16 21:12:52;;;;;;;15.38;11.80;;;;;;;;;;9974986;29;20081;-86
2023/08/16 21:17:53;;;;;;;15.32;12.05;;;;;;;;;;9975777;29;20038;-86
2023/08/16 21:22:54;;;;;;;16.27;11.25;;;;;;;;;;9977073;29;20496;-86
2023/08/16 21:27:55;;;;;;;15.68;11.85;;;;;;;;;;9974281;29;20056;-86
2023/08/16 21:32:56;;;;;;;13.35;11.23;;;;;;;;;;9974268;29;20042;-86
2023/08/16 21:37:57;;;;;;;16.85;12.95;;;;;;;;;;9974607;29;20411;-86
2023/08/16 21:42:58;;;;;;;18.42;12.80;;;;;;;;;;9973632;29;20039;-85
2023/08/16 21:47:59;;;;;;;14.98;11.38;;;;;;;;;;9975039;29;20054;-86
2023/08/16 21:53:01;;;;;;;15.95;11.50;;;;;;;;;;9975567;29;20509;-85
2023/08/16 21:58:02;;;;;;;16.63;12.45;;;;;;;;;;9974762;29;20034;-85
2023/08/16 22:03:03;;;;;;;17.20;13.23;;;;;;;;;;9956319;24;20359;-85
2023/08/16 22:08:05;;;;;;;16.90;13.00;;;;;;;;;;9950278;24;20565;-85
2023/08/16 22:13:06;;;;;;;17.95;11.70;;;;;;;;;;9935423;29;20034;-81
2023/08/16 22:18:07;;;;;;;18.13;12.45;;;;;;;;;;9938026;29;20483;-82
2023/08/16 22:23:08;;;;;;;15.93;12.15;;;;;;;;;;9936215;29;20043;-81
2023/08/16 22:28:09;;;;;;;16.77;12.35;;;;;;;;;;9935622;29;20050;-81
2023/08/16 22:33:10;;;;;;;18.17;12.55;;;;;;;;;;9936932;29;20121;-81
2023/08/16 22:38:13;;;;;;;15.38;12.00;;;;;;;;;;9950696;24;20069;-81
2023/08/16 22:43:14;;;;;;;15.00;12.48;;;;;;;;;;9935751;29;20035;-82
2023/08/16 22:48:15;;;;;;;15.68;12.27;;;;;;;;;;9936494;29;20042;-81
2023/08/16 22:53:16;;;;;;;15.27;11.50;;;;;;;;;;9936020;29;20522;-80
2023/08/16 22:58:17;;;;;;;17.38;12.65;;;;;;;;;;9935045;29;20192;-82
2023/08/16 23:03:18;;;;;;;15.35;12.40;;;;;;;;;;9935716;29;20553;-81
2023/08/16 23:08:19;;;;;;;14.43;12.35;;;;;;;;;;9934709;29;20053;-83
2023/08/16 23:13:20;;;;;;;18.77;13.13;;;;;;;;;;9935059;29;20445;-81
2023/08/16 23:18:21;;;;;;;19.77;14.00;;;;;;;;;;9934207;29;20038;-81
2023/08/16 23:23:22;;;;;;;19.73;15.57;;;;;;;;;;9935168;29;20051;-81
2023/08/16 23:28:24;;;;;;;22.05;15.07;;;;;;;;;;9934642;29;20058;-82
2023/08/16 23:33:25;;;;;;;21.33;14.88;;;;;;;;;;9934493;29;20054;-82
2023/08/16 23:38:26;;;;;;;18.30;13.98;;;;;;;;;;9948671;29;20070;-82
2023/08/16 23:43:27;;;;;;;21.73;14.07;;;;;;;;;;9971311;29;20035;-82
2023/08/16 23:48:27;;;;;;;17.60;14.00;;;;;;;;;;9970526;29;20069;-82
2023/08/16 23:53:28;;;;;;;23.20;14.43;;;;;;;;;;9971071;29;20046;-82
2023/08/16 23:58:29;;;;;;;18.85;13.75;;;;;;;;;;9970837;29;20046;-82
